sensor_id;sensor_type;location;lat;lon;timestamp;temperature;humidity
11989;DHT22;6054;50.966;7.094;2022-09-03T00:02:05;28.30;28.20
11989;DHT22;6054;50.966;7.094;2022-09-03T00:04:39;28.40;28.10
11989;DHT22;6054;50.966;7.094;2022-09-03T00:07:14;28.30;28.10
11989;DHT22;6054;50.966;7.094;2022-09-03T00:09:46;28.20;28.10
11989;DHT22;6054;50.966;7.094;2022-09-03T00:12:17;28.20;28.20
11989;DHT22;6054;50.966;7.094;2022-09-03T00:14:50;28.20;28.30
11989;DHT22;6054;50.966;7.094;2022-09-03T00:17:21;28.20;28.30
11989;DHT22;6054;50.966;7.094;2022-09-03T00:19:54;28.10;28.40
11989;DHT22;6054;50.966;7.094;2022-09-03T00:22:24;28.10;28.40
11989;DHT22;6054;50.966;7.094;2022-09-03T00:24:55;28.10;28.50
11989;DHT22;6054;50.966;7.094;2022-09-03T00:27:26;28.00;28.50
11989;DHT22;6054;50.966;7.094;2022-09-03T00:29:58;28.00;28.50
11989;DHT22;6054;50.966;7.094;2022-09-03T00:32:33;28.00;28.60
11989;DHT22;6054;50.966;7.094;2022-09-03T00:35:05;28.00;28.50
11989;DHT22;6054;50.966;7.094;2022-09-03T00:37:35;28.00;28.70
11989;DHT22;6054;50.966;7.094;2022-09-03T00:40:02;27.90;28.40
11989;DHT22;6054;50.966;7.094;2022-09-03T00:42:40;27.90;28.70
11989;DHT22;6054;50.966;7.094;2022-09-03T00:45:16;27.90;28.70
11989;DHT22;6054;50.966;7.094;2022-09-03T00:47:52;27.80;28.80
11989;DHT22;6054;50.966;7.094;2022-09-03T00:50:33;27.80;28.90
11989;DHT22;6054;50.966;7.094;2022-09-03T00:53:11;27.90;28.90
11989;DHT22;6054;50.966;7.094;2022-09-03T00:55:47;27.80;28.80
11989;DHT22;6054;50.966;7.094;2022-09-03T00:58:36;27.90;28.90
11989;DHT22;6054;50.966;7.094;2022-09-03T01:01:15;27.70;29.00
11989;DHT22;6054;50.966;7.094;2022-09-03T01:03:52;27.70;28.90
11989;DHT22;6054;50.966;7.094;2022-09-03T01:06:30;27.70;29.00
11989;DHT22;6054;50.966;7.094;2022-09-03T01:09:11;27.80;29.10
11989;DHT22;6054;50.966;7.094;2022-09-03T01:11:49;27.80;29.20
11989;DHT22;6054;50.966;7.094;2022-09-03T01:14:38;27.80;29.20
11989;DHT22;6054;50.966;7.094;2022-09-03T01:17:18;27.80;29.20
11989;DHT22;6054;50.966;7.094;2022-09-03T01:20:01;27.80;29.10
11989;DHT22;6054;50.966;7.094;2022-09-03T01:22:54;27.80;29.20
11989;DHT22;6054;50.966;7.094;2022-09-03T01:25:35;27.80;29.40
11989;DHT22;6054;50.966;7.094;2022-09-03T01:28:18;27.70;29.20
11989;DHT22;6054;50.966;7.094;2022-09-03T01:30:52;27.70;29.30
11989;DHT22;6054;50.966;7.094;2022-09-03T01:33:27;27.70;29.20
11989;DHT22;6054;50.966;7.094;2022-09-03T01:36:02;27.80;29.30
11989;DHT22;6054;50.966;7.094;2022-09-03T01:38:39;27.60;29.40
11989;DHT22;6054;50.966;7.094;2022-09-03T01:41:16;27.60;29.50
11989;DHT22;6054;50.966;7.094;2022-09-03T01:44:12;27.70;29.50
11989;DHT22;6054;50.966;7.094;2022-09-03T01:46:43;27.60;29.50
11989;DHT22;6054;50.966;7.094;2022-09-03T01:49:17;27.60;29.50
11989;DHT22;6054;50.966;7.094;2022-09-03T01:51:50;27.50;29.50
11989;DHT22;6054;50.966;7.094;2022-09-03T01:54:31;27.60;29.60
11989;DHT22;6054;50.966;7.094;2022-09-03T01:57:16;27.50;29.60
11989;DHT22;6054;50.966;7.094;2022-09-03T01:59:50;27.50;29.80
11989;DHT22;6054;50.966;7.094;2022-09-03T02:02:20;27.50;29.70
11989;DHT22;6054;50.966;7.094;2022-09-03T02:04:58;27.50;29.70
11989;DHT22;6054;50.966;7.094;2022-09-03T02:07:29;27.40;29.90
11989;DHT22;6054;50.966;7.094;2022-09-03T02:09:58;27.40;29.90
11989;DHT22;6054;50.966;7.094;2022-09-03T02:12:25;27.60;29.70
11989;DHT22;6054;50.966;7.094;2022-09-03T02:14:55;27.30;29.80
11989;DHT22;6054;50.966;7.094;2022-09-03T02:17:22;27.30;29.50
11989;DHT22;6054;50.966;7.094;2022-09-03T02:19:49;27.50;29.30
11989;DHT22;6054;50.966;7.094;2022-09-03T02:22:16;27.50;29.60
11989;DHT22;6054;50.966;7.094;2022-09-03T02:24:43;27.20;29.60
11989;DHT22;6054;50.966;7.094;2022-09-03T02:27:10;27.20;29.60
11989;DHT22;6054;50.966;7.094;2022-09-03T02:29:37;27.20;29.70
11989;DHT22;6054;50.966;7.094;2022-09-03T02:32:05;27.10;29.70
11989;DHT22;6054;50.966;7.094;2022-09-03T02:34:32;27.10;29.60
11989;DHT22;6054;50.966;7.094;2022-09-03T02:36:59;27.10;29.80
11989;DHT22;6054;50.966;7.094;2022-09-03T02:39:25;27.00;29.90
11989;DHT22;6054;50.966;7.094;2022-09-03T02:41:54;27.10;30.00
11989;DHT22;6054;50.966;7.094;2022-09-03T02:44:26;27.00;30.10
11989;DHT22;6054;50.966;7.094;2022-09-03T02:46:57;27.00;30.20
11989;DHT22;6054;50.966;7.094;2022-09-03T02:49:26;27.00;30.20
11989;DHT22;6054;50.966;7.094;2022-09-03T02:51:57;27.00;30.00
11989;DHT22;6054;50.966;7.094;2022-09-03T02:54:25;27.00;30.40
11989;DHT22;6054;50.966;7.094;2022-09-03T02:56:52;26.90;30.30
11989;DHT22;6054;50.966;7.094;2022-09-03T02:59:19;27.00;30.10
11989;DHT22;6054;50.966;7.094;2022-09-03T03:01:47;26.90;30.20
11989;DHT22;6054;50.966;7.094;2022-09-03T03:04:14;26.90;30.20
11989;DHT22;6054;50.966;7.094;2022-09-03T03:06:42;27.00;30.10
11989;DHT22;6054;50.966;7.094;2022-09-03T03:09:09;26.80;30.10
11989;DHT22;6054;50.966;7.094;2022-09-03T03:11:36;26.80;30.10
11989;DHT22;6054;50.966;7.094;2022-09-03T03:14:03;27.00;30.30
11989;DHT22;6054;50.966;7.094;2022-09-03T03:16:29;26.80;30.10
11989;DHT22;6054;50.966;7.094;2022-09-03T03:18:57;27.00;30.10
11989;DHT22;6054;50.966;7.094;2022-09-03T03:21:24;26.80;30.10
11989;DHT22;6054;50.966;7.094;2022-09-03T03:23:53;26.80;31.10
11989;DHT22;6054;50.966;7.094;2022-09-03T03:26:20;26.80;30.50
11989;DHT22;6054;50.966;7.094;2022-09-03T03:28:50;26.80;30.50
11989;DHT22;6054;50.966;7.094;2022-09-03T03:31:21;26.90;30.70
11989;DHT22;6054;50.966;7.094;2022-09-03T03:33:50;26.90;30.70
11989;DHT22;6054;50.966;7.094;2022-09-03T03:36:18;26.80;30.70
11989;DHT22;6054;50.966;7.094;2022-09-03T03:38:45;27.00;30.90
11989;DHT22;6054;50.966;7.094;2022-09-03T03:41:16;26.80;30.20
11989;DHT22;6054;50.966;7.094;2022-09-03T03:43:43;26.80;30.80
11989;DHT22;6054;50.966;7.094;2022-09-03T03:46:11;26.80;30.80
11989;DHT22;6054;50.966;7.094;2022-09-03T03:48:39;26.80;31.00
11989;DHT22;6054;50.966;7.094;2022-09-03T03:51:08;26.70;30.80
11989;DHT22;6054;50.966;7.094;2022-09-03T03:53:37;26.90;31.10
11989;DHT22;6054;50.966;7.094;2022-09-03T03:56:05;26.80;31.10
11989;DHT22;6054;50.966;7.094;2022-09-03T03:58:36;26.70;31.00
11989;DHT22;6054;50.966;7.094;2022-09-03T04:01:09;26.80;30.90
11989;DHT22;6054;50.966;7.094;2022-09-03T04:03:36;26.60;31.10
11989;DHT22;6054;50.966;7.094;2022-09-03T04:06:06;26.60;30.40
11989;DHT22;6054;50.966;7.094;2022-09-03T04:08:34;26.60;31.00
11989;DHT22;6054;50.966;7.094;2022-09-03T04:11:02;26.60;31.00
11989;DHT22;6054;50.966;7.094;2022-09-03T04:13:29;26.60;31.00
11989;DHT22;6054;50.966;7.094;2022-09-03T04:16:02;26.60;30.90
11989;DHT22;6054;50.966;7.094;2022-09-03T04:18:29;26.60;31.00
11989;DHT22;6054;50.966;7.094;2022-09-03T04:20:59;26.50;31.20
11989;DHT22;6054;50.966;7.094;2022-09-03T04:23:29;26.50;31.20
11989;DHT22;6054;50.966;7.094;2022-09-03T04:25:56;26.50;31.30
11989;DHT22;6054;50.966;7.094;2022-09-03T04:28:23;26.50;31.20
11989;DHT22;6054;50.966;7.094;2022-09-03T04:30:50;26.40;30.90
11989;DHT22;6054;50.966;7.094;2022-09-03T04:33:19;26.50;31.10
11989;DHT22;6054;50.966;7.094;2022-09-03T04:35:45;26.40;31.00
11989;DHT22;6054;50.966;7.094;2022-09-03T04:38:12;26.50;31.10
11989;DHT22;6054;50.966;7.094;2022-09-03T04:40:39;26.50;30.60
11989;DHT22;6054;50.966;7.094;2022-09-03T04:43:06;26.40;31.10
11989;DHT22;6054;50.966;7.094;2022-09-03T04:45:33;26.30;31.30
11989;DHT22;6054;50.966;7.094;2022-09-03T04:48:01;26.30;31.10
11989;DHT22;6054;50.966;7.094;2022-09-03T04:50:31;26.30;31.50
11989;DHT22;6054;50.966;7.094;2022-09-03T04:53:01;26.30;30.90
11989;DHT22;6054;50.966;7.094;2022-09-03T04:55:31;26.40;31.70
11989;DHT22;6054;50.966;7.094;2022-09-03T04:57:58;26.30;31.90
11989;DHT22;6054;50.966;7.094;2022-09-03T05:00:25;26.30;31.30
11989;DHT22;6054;50.966;7.094;2022-09-03T05:02:51;26.40;31.50
11989;DHT22;6054;50.966;7.094;2022-09-03T05:05:18;26.20;31.50
11989;DHT22;6054;50.966;7.094;2022-09-03T05:07:46;26.20;31.60
11989;DHT22;6054;50.966;7.094;2022-09-03T05:10:13;26.20;31.50
11989;DHT22;6054;50.966;7.094;2022-09-03T05:12:45;26.20;31.90
11989;DHT22;6054;50.966;7.094;2022-09-03T05:15:11;26.10;31.70
11989;DHT22;6054;50.966;7.094;2022-09-03T05:17:38;26.10;31.70
11989;DHT22;6054;50.966;7.094;2022-09-03T05:20:06;26.20;31.60
11989;DHT22;6054;50.966;7.094;2022-09-03T05:22:33;26.20;32.30
11989;DHT22;6054;50.966;7.094;2022-09-03T05:25:01;26.30;31.90
11989;DHT22;6054;50.966;7.094;2022-09-03T05:27:27;26.20;31.80
11989;DHT22;6054;50.966;7.094;2022-09-03T05:29:54;26.20;31.50
11989;DHT22;6054;50.966;7.094;2022-09-03T05:32:21;26.20;31.60
11989;DHT22;6054;50.966;7.094;2022-09-03T05:34:49;26.20;31.00
11989;DHT22;6054;50.966;7.094;2022-09-03T05:37:16;26.20;31.60
11989;DHT22;6054;50.966;7.094;2022-09-03T05:39:43;26.20;32.00
11989;DHT22;6054;50.966;7.094;2022-09-03T05:42:11;26.50;32.20
11989;DHT22;6054;50.966;7.094;2022-09-03T05:44:39;26.30;32.00
11989;DHT22;6054;50.966;7.094;2022-09-03T05:47:06;26.30;32.00
11989;DHT22;6054;50.966;7.094;2022-09-03T05:49:33;26.30;31.70
11989;DHT22;6054;50.966;7.094;2022-09-03T05:52:00;26.30;32.00
11989;DHT22;6054;50.966;7.094;2022-09-03T05:54:27;26.30;32.10
11989;DHT22;6054;50.966;7.094;2022-09-03T05:56:54;26.30;31.70
11989;DHT22;6054;50.966;7.094;2022-09-03T05:59:22;26.40;32.00
11989;DHT22;6054;50.966;7.094;2022-09-03T06:01:49;26.40;32.00
11989;DHT22;6054;50.966;7.094;2022-09-03T06:04:16;26.40;32.20
11989;DHT22;6054;50.966;7.094;2022-09-03T06:06:45;26.50;32.20
11989;DHT22;6054;50.966;7.094;2022-09-03T06:09:14;26.50;32.20
11989;DHT22;6054;50.966;7.094;2022-09-03T06:11:43;26.40;32.30
11989;DHT22;6054;50.966;7.094;2022-09-03T06:14:12;26.50;32.50
11989;DHT22;6054;50.966;7.094;2022-09-03T06:16:41;26.50;32.20
11989;DHT22;6054;50.966;7.094;2022-09-03T06:19:09;26.40;32.60
11989;DHT22;6054;50.966;7.094;2022-09-03T06:21:38;26.40;32.50
11989;DHT22;6054;50.966;7.094;2022-09-03T06:24:08;26.50;32.70
11989;DHT22;6054;50.966;7.094;2022-09-03T06:26:35;26.40;32.70
11989;DHT22;6054;50.966;7.094;2022-09-03T06:29:02;26.40;32.00
11989;DHT22;6054;50.966;7.094;2022-09-03T06:31:28;26.50;32.30
11989;DHT22;6054;50.966;7.094;2022-09-03T06:33:57;26.40;32.40
11989;DHT22;6054;50.966;7.094;2022-09-03T06:36:24;26.60;32.60
11989;DHT22;6054;50.966;7.094;2022-09-03T06:38:52;26.60;32.80
11989;DHT22;6054;50.966;7.094;2022-09-03T06:41:21;26.50;32.90
11989;DHT22;6054;50.966;7.094;2022-09-03T06:43:51;26.50;32.90
11989;DHT22;6054;50.966;7.094;2022-09-03T06:46:19;26.50;32.90
11989;DHT22;6054;50.966;7.094;2022-09-03T06:48:47;26.40;31.80
11989;DHT22;6054;50.966;7.094;2022-09-03T06:51:18;26.40;32.70
11989;DHT22;6054;50.966;7.094;2022-09-03T06:53:46;26.50;32.90
11989;DHT22;6054;50.966;7.094;2022-09-03T06:56:14;26.50;32.80
11989;DHT22;6054;50.966;7.094;2022-09-03T06:58:44;26.60;32.90
11989;DHT22;6054;50.966;7.094;2022-09-03T07:01:12;26.60;32.80
11989;DHT22;6054;50.966;7.094;2022-09-03T07:03:41;26.60;33.10
11989;DHT22;6054;50.966;7.094;2022-09-03T07:06:10;26.60;33.20
11989;DHT22;6054;50.966;7.094;2022-09-03T07:08:39;26.60;33.20
11989;DHT22;6054;50.966;7.094;2022-09-03T07:11:09;26.60;33.10
11989;DHT22;6054;50.966;7.094;2022-09-03T07:13:36;26.70;33.30
11989;DHT22;6054;50.966;7.094;2022-09-03T07:16:06;26.80;33.30
11989;DHT22;6054;50.966;7.094;2022-09-03T07:18:34;26.80;33.30
11989;DHT22;6054;50.966;7.094;2022-09-03T07:21:02;26.80;32.60
11989;DHT22;6054;50.966;7.094;2022-09-03T07:23:31;26.80;33.20
11989;DHT22;6054;50.966;7.094;2022-09-03T07:26:00;26.90;33.20
11989;DHT22;6054;50.966;7.094;2022-09-03T07:28:28;26.90;33.20
11989;DHT22;6054;50.966;7.094;2022-09-03T07:31:04;26.90;33.20
11989;DHT22;6054;50.966;7.094;2022-09-03T07:33:31;26.90;33.40
11989;DHT22;6054;50.966;7.094;2022-09-03T07:36:02;26.90;33.10
11989;DHT22;6054;50.966;7.094;2022-09-03T07:38:30;27.00;33.20
11989;DHT22;6054;50.966;7.094;2022-09-03T07:40:59;27.10;32.90
11989;DHT22;6054;50.966;7.094;2022-09-03T07:43:26;27.00;33.00
11989;DHT22;6054;50.966;7.094;2022-09-03T07:45:54;27.10;32.70
11989;DHT22;6054;50.966;7.094;2022-09-03T07:48:22;27.10;32.00
11989;DHT22;6054;50.966;7.094;2022-09-03T07:50:57;27.10;32.60
11989;DHT22;6054;50.966;7.094;2022-09-03T07:53:26;27.10;32.10
11989;DHT22;6054;50.966;7.094;2022-09-03T07:55:53;27.20;31.90
11989;DHT22;6054;50.966;7.094;2022-09-03T07:58:23;27.20;31.40
11989;DHT22;6054;50.966;7.094;2022-09-03T08:00:50;27.30;31.40
11989;DHT22;6054;50.966;7.094;2022-09-03T08:03:16;27.40;31.40
11989;DHT22;6054;50.966;7.094;2022-09-03T08:05:44;27.40;30.00
11989;DHT22;6054;50.966;7.094;2022-09-03T08:08:13;27.70;31.00
11989;DHT22;6054;50.966;7.094;2022-09-03T08:10:44;27.40;31.50
11989;DHT22;6054;50.966;7.094;2022-09-03T08:13:11;27.60;30.70
11989;DHT22;6054;50.966;7.094;2022-09-03T08:15:39;27.60;31.90
11989;DHT22;6054;50.966;7.094;2022-09-03T08:18:07;27.70;30.40
11989;DHT22;6054;50.966;7.094;2022-09-03T08:20:42;27.80;32.80
11989;DHT22;6054;50.966;7.094;2022-09-03T08:23:09;27.90;31.60
11989;DHT22;6054;50.966;7.094;2022-09-03T08:25:36;27.90;30.10
11989;DHT22;6054;50.966;7.094;2022-09-03T08:28:06;28.00;30.80
11989;DHT22;6054;50.966;7.094;2022-09-03T08:30:33;28.00;30.30
11989;DHT22;6054;50.966;7.094;2022-09-03T08:33:02;28.20;31.90
11989;DHT22;6054;50.966;7.094;2022-09-03T08:35:31;28.20;31.60
11989;DHT22;6054;50.966;7.094;2022-09-03T08:37:59;28.30;29.00
11989;DHT22;6054;50.966;7.094;2022-09-03T08:40:30;28.20;31.90
11989;DHT22;6054;50.966;7.094;2022-09-03T08:43:05;28.30;32.90
11989;DHT22;6054;50.966;7.094;2022-09-03T08:45:35;28.30;32.90
11989;DHT22;6054;50.966;7.094;2022-09-03T08:48:08;28.30;32.20
11989;DHT22;6054;50.966;7.094;2022-09-03T08:50:38;28.40;32.80
11989;DHT22;6054;50.966;7.094;2022-09-03T08:53:10;28.20;32.70
11989;DHT22;6054;50.966;7.094;2022-09-03T08:55:43;28.20;32.80
11989;DHT22;6054;50.966;7.094;2022-09-03T08:58:14;28.20;32.30
11989;DHT22;6054;50.966;7.094;2022-09-03T09:00:48;28.20;32.80
11989;DHT22;6054;50.966;7.094;2022-09-03T09:03:37;28.10;32.70
11989;DHT22;6054;50.966;7.094;2022-09-03T09:06:16;28.10;33.80
11989;DHT22;6054;50.966;7.094;2022-09-03T09:08:51;28.10;33.90
11989;DHT22;6054;50.966;7.094;2022-09-03T09:11:31;28.00;34.10
11989;DHT22;6054;50.966;7.094;2022-09-03T09:14:03;28.00;34.30
11989;DHT22;6054;50.966;7.094;2022-09-03T09:16:38;28.10;34.60
11989;DHT22;6054;50.966;7.094;2022-09-03T09:19:30;28.00;34.90
11989;DHT22;6054;50.966;7.094;2022-09-03T09:22:01;28.10;35.70
11989;DHT22;6054;50.966;7.094;2022-09-03T09:24:36;28.00;35.20
11989;DHT22;6054;50.966;7.094;2022-09-03T09:27:04;28.00;35.50
11989;DHT22;6054;50.966;7.094;2022-09-03T09:29:34;28.00;35.60
11989;DHT22;6054;50.966;7.094;2022-09-03T09:32:02;28.00;35.60
11989;DHT22;6054;50.966;7.094;2022-09-03T09:34:34;28.00;35.80
11989;DHT22;6054;50.966;7.094;2022-09-03T09:37:04;28.00;36.20
11989;DHT22;6054;50.966;7.094;2022-09-03T09:39:31;28.00;36.50
11989;DHT22;6054;50.966;7.094;2022-09-03T09:41:59;28.00;36.10
11989;DHT22;6054;50.966;7.094;2022-09-03T09:44:33;28.00;36.60
11989;DHT22;6054;50.966;7.094;2022-09-03T09:47:05;28.00;37.30
11989;DHT22;6054;50.966;7.094;2022-09-03T09:49:37;28.00;38.20
11989;DHT22;6054;50.966;7.094;2022-09-03T09:52:11;28.00;38.40
11989;DHT22;6054;50.966;7.094;2022-09-03T09:54:39;28.00;38.30
11989;DHT22;6054;50.966;7.094;2022-09-03T09:57:13;28.00;38.50
11989;DHT22;6054;50.966;7.094;2022-09-03T09:59:43;28.00;38.60
11989;DHT22;6054;50.966;7.094;2022-09-03T10:02:12;28.00;38.70
11989;DHT22;6054;50.966;7.094;2022-09-03T10:04:41;28.00;38.80
11989;DHT22;6054;50.966;7.094;2022-09-03T10:07:22;28.20;39.00
11989;DHT22;6054;50.966;7.094;2022-09-03T10:10:00;28.10;39.40
11989;DHT22;6054;50.966;7.094;2022-09-03T10:12:31;28.10;39.40
11989;DHT22;6054;50.966;7.094;2022-09-03T10:15:07;28.40;39.70
11989;DHT22;6054;50.966;7.094;2022-09-03T10:17:43;28.30;39.70
11989;DHT22;6054;50.966;7.094;2022-09-03T10:20:18;28.30;38.90
11989;DHT22;6054;50.966;7.094;2022-09-03T10:23:04;28.30;38.30
11989;DHT22;6054;50.966;7.094;2022-09-03T10:25:38;28.30;38.00
11989;DHT22;6054;50.966;7.094;2022-09-03T10:28:08;28.40;37.80
11989;DHT22;6054;50.966;7.094;2022-09-03T10:30:44;28.40;37.50
11989;DHT22;6054;50.966;7.094;2022-09-03T10:33:17;28.40;37.50
11989;DHT22;6054;50.966;7.094;2022-09-03T10:35:52;28.50;37.40
11989;DHT22;6054;50.966;7.094;2022-09-03T10:38:26;28.60;37.10
11989;DHT22;6054;50.966;7.094;2022-09-03T10:41:01;28.70;37.10
11989;DHT22;6054;50.966;7.094;2022-09-03T10:43:45;28.70;36.90
11989;DHT22;6054;50.966;7.094;2022-09-03T10:46:24;28.70;36.80
11989;DHT22;6054;50.966;7.094;2022-09-03T10:49:16;28.90;36.50
11989;DHT22;6054;50.966;7.094;2022-09-03T10:51:51;29.00;36.60
11989;DHT22;6054;50.966;7.094;2022-09-03T10:54:31;29.10;36.20
11989;DHT22;6054;50.966;7.094;2022-09-03T10:57:09;29.20;36.10
11989;DHT22;6054;50.966;7.094;2022-09-03T10:59:45;29.30;36.30
11989;DHT22;6054;50.966;7.094;2022-09-03T11:02:32;29.40;36.30
11989;DHT22;6054;50.966;7.094;2022-09-03T11:05:09;29.50;36.20
11989;DHT22;6054;50.966;7.094;2022-09-03T11:07:44;29.70;36.00
11989;DHT22;6054;50.966;7.094;2022-09-03T11:10:16;29.90;35.80
11989;DHT22;6054;50.966;7.094;2022-09-03T11:12:49;29.90;35.70
11989;DHT22;6054;50.966;7.094;2022-09-03T11:15:25;30.00;35.40
11989;DHT22;6054;50.966;7.094;2022-09-03T11:17:55;30.30;35.30
11989;DHT22;6054;50.966;7.094;2022-09-03T11:20:25;30.20;35.10
11989;DHT22;6054;50.966;7.094;2022-09-03T11:22:56;30.30;35.00
11989;DHT22;6054;50.966;7.094;2022-09-03T11:25:26;30.30;35.00
11989;DHT22;6054;50.966;7.094;2022-09-03T11:28:04;30.40;34.90
11989;DHT22;6054;50.966;7.094;2022-09-03T11:30:49;30.50;34.80
11989;DHT22;6054;50.966;7.094;2022-09-03T11:33:20;30.60;35.00
11989;DHT22;6054;50.966;7.094;2022-09-03T11:35:55;30.70;34.90
11989;DHT22;6054;50.966;7.094;2022-09-03T11:38:25;30.70;34.80
11989;DHT22;6054;50.966;7.094;2022-09-03T11:41:09;30.70;34.60
11989;DHT22;6054;50.966;7.094;2022-09-03T11:43:38;30.80;34.60
11989;DHT22;6054;50.966;7.094;2022-09-03T11:46:09;30.80;34.50
11989;DHT22;6054;50.966;7.094;2022-09-03T11:48:40;30.80;34.60
11989;DHT22;6054;50.966;7.094;2022-09-03T11:51:28;31.00;34.60
11989;DHT22;6054;50.966;7.094;2022-09-03T11:53:59;30.90;35.20
11989;DHT22;6054;50.966;7.094;2022-09-03T11:56:26;31.00;34.30
11989;DHT22;6054;50.966;7.094;2022-09-03T11:59:03;30.90;34.20
11989;DHT22;6054;50.966;7.094;2022-09-03T12:01:31;31.00;34.50
11989;DHT22;6054;50.966;7.094;2022-09-03T12:04:00;31.00;34.20
11989;DHT22;6054;50.966;7.094;2022-09-03T12:09:42;31.00;34.40
11989;DHT22;6054;50.966;7.094;2022-09-03T12:12:29;31.00;34.30
11989;DHT22;6054;50.966;7.094;2022-09-03T12:15:02;31.00;34.30
11989;DHT22;6054;50.966;7.094;2022-09-03T12:17:35;31.00;34.30
11989;DHT22;6054;50.966;7.094;2022-09-03T12:20:11;31.10;34.10
11989;DHT22;6054;50.966;7.094;2022-09-03T12:22:38;31.10;34.00
11989;DHT22;6054;50.966;7.094;2022-09-03T12:25:12;31.20;33.70
11989;DHT22;6054;50.966;7.094;2022-09-03T12:27:40;31.20;34.00
11989;DHT22;6054;50.966;7.094;2022-09-03T12:30:15;31.30;34.10
11989;DHT22;6054;50.966;7.094;2022-09-03T12:32:42;31.30;34.10
11989;DHT22;6054;50.966;7.094;2022-09-03T12:35:11;31.40;34.30
11989;DHT22;6054;50.966;7.094;2022-09-03T12:37:40;31.40;33.90
11989;DHT22;6054;50.966;7.094;2022-09-03T12:40:17;31.40;33.80
11989;DHT22;6054;50.966;7.094;2022-09-03T12:42:46;31.50;33.80
11989;DHT22;6054;50.966;7.094;2022-09-03T12:45:14;31.70;33.20
11989;DHT22;6054;50.966;7.094;2022-09-03T12:47:42;31.50;33.40
11989;DHT22;6054;50.966;7.094;2022-09-03T12:50:15;31.50;33.30
11989;DHT22;6054;50.966;7.094;2022-09-03T12:52:44;31.60;33.70
11989;DHT22;6054;50.966;7.094;2022-09-03T12:55:23;31.70;33.60
11989;DHT22;6054;50.966;7.094;2022-09-03T12:57:55;31.70;33.60
11989;DHT22;6054;50.966;7.094;2022-09-03T13:00:26;31.70;33.60
11989;DHT22;6054;50.966;7.094;2022-09-03T13:02:58;31.80;33.60
11989;DHT22;6054;50.966;7.094;2022-09-03T13:05:30;31.80;33.60
11989;DHT22;6054;50.966;7.094;2022-09-03T13:07:59;31.90;33.70
11989;DHT22;6054;50.966;7.094;2022-09-03T13:10:34;31.90;33.70
11989;DHT22;6054;50.966;7.094;2022-09-03T13:13:06;31.90;34.00
11989;DHT22;6054;50.966;7.094;2022-09-03T13:15:35;31.90;33.90
11989;DHT22;6054;50.966;7.094;2022-09-03T13:18:09;32.00;33.90
11989;DHT22;6054;50.966;7.094;2022-09-03T13:20:51;32.00;34.20
11989;DHT22;6054;50.966;7.094;2022-09-03T13:23:38;32.10;34.10
11989;DHT22;6054;50.966;7.094;2022-09-03T13:26:21;32.20;34.40
11989;DHT22;6054;50.966;7.094;2022-09-03T13:29:06;32.30;34.20
11989;DHT22;6054;50.966;7.094;2022-09-03T13:31:42;32.40;34.30
11989;DHT22;6054;50.966;7.094;2022-09-03T13:34:15;32.40;34.20
11989;DHT22;6054;50.966;7.094;2022-09-03T13:36:54;32.60;34.40
11989;DHT22;6054;50.966;7.094;2022-09-03T13:39:32;32.70;33.90
11989;DHT22;6054;50.966;7.094;2022-09-03T13:42:11;32.80;32.60
11989;DHT22;6054;50.966;7.094;2022-09-03T13:44:44;32.80;33.70
11989;DHT22;6054;50.966;7.094;2022-09-03T13:47:21;32.90;33.90
11989;DHT22;6054;50.966;7.094;2022-09-03T13:49:55;33.00;34.20
11989;DHT22;6054;50.966;7.094;2022-09-03T13:52:44;32.90;33.90
11989;DHT22;6054;50.966;7.094;2022-09-03T13:55:24;32.80;33.90
11989;DHT22;6054;50.966;7.094;2022-09-03T13:58:04;32.70;34.20
11989;DHT22;6054;50.966;7.094;2022-09-03T14:00:34;32.80;34.30
11989;DHT22;6054;50.966;7.094;2022-09-03T14:03:09;32.90;34.30
11989;DHT22;6054;50.966;7.094;2022-09-03T14:05:48;32.90;34.20
11989;DHT22;6054;50.966;7.094;2022-09-03T14:08:25;33.00;34.40
11989;DHT22;6054;50.966;7.094;2022-09-03T14:11:13;33.00;34.20
11989;DHT22;6054;50.966;7.094;2022-09-03T14:13:59;33.10;34.10
11989;DHT22;6054;50.966;7.094;2022-09-03T14:16:36;33.00;34.00
11989;DHT22;6054;50.966;7.094;2022-09-03T14:19:10;32.90;34.20
11989;DHT22;6054;50.966;7.094;2022-09-03T14:21:43;32.90;34.20
11989;DHT22;6054;50.966;7.094;2022-09-03T14:24:15;32.80;34.00
11989;DHT22;6054;50.966;7.094;2022-09-03T14:26:50;33.00;34.00
11989;DHT22;6054;50.966;7.094;2022-09-03T14:29:23;32.90;34.30
11989;DHT22;6054;50.966;7.094;2022-09-03T14:32:16;32.90;34.40
11989;DHT22;6054;50.966;7.094;2022-09-03T14:37:54;32.90;34.60
11989;DHT22;6054;50.966;7.094;2022-09-03T14:40:28;32.90;34.40
11989;DHT22;6054;50.966;7.094;2022-09-03T14:43:05;32.90;34.10
11989;DHT22;6054;50.966;7.094;2022-09-03T14:45:52;32.90;34.20
11989;DHT22;6054;50.966;7.094;2022-09-03T14:48:40;32.90;34.40
11989;DHT22;6054;50.966;7.094;2022-09-03T14:51:22;33.00;34.50
11989;DHT22;6054;50.966;7.094;2022-09-03T14:57:08;33.00;34.50
11989;DHT22;6054;50.966;7.094;2022-09-03T14:59:57;33.00;34.40
11989;DHT22;6054;50.966;7.094;2022-09-03T15:02:47;33.00;34.30
11989;DHT22;6054;50.966;7.094;2022-09-03T15:05:17;33.00;34.20
11989;DHT22;6054;50.966;7.094;2022-09-03T15:07:50;33.20;34.20
11989;DHT22;6054;50.966;7.094;2022-09-03T15:10:26;33.00;34.00
11989;DHT22;6054;50.966;7.094;2022-09-03T15:12:58;33.10;33.70
11989;DHT22;6054;50.966;7.094;2022-09-03T15:15:29;33.30;34.10
11989;DHT22;6054;50.966;7.094;2022-09-03T15:18:12;33.10;33.70
11989;DHT22;6054;50.966;7.094;2022-09-03T15:20:49;33.10;33.90
11989;DHT22;6054;50.966;7.094;2022-09-03T15:23:39;33.10;33.70
11989;DHT22;6054;50.966;7.094;2022-09-03T15:29:11;33.30;34.00
11989;DHT22;6054;50.966;7.094;2022-09-03T15:31:50;33.40;33.80
11989;DHT22;6054;50.966;7.094;2022-09-03T15:34:43;33.60;33.80
11989;DHT22;6054;50.966;7.094;2022-09-03T15:37:16;33.60;33.80
11989;DHT22;6054;50.966;7.094;2022-09-03T15:39:45;33.60;33.60
11989;DHT22;6054;50.966;7.094;2022-09-03T15:42:25;33.60;33.50
11989;DHT22;6054;50.966;7.094;2022-09-03T15:44:59;33.60;33.60
11989;DHT22;6054;50.966;7.094;2022-09-03T15:47:35;33.50;33.60
11989;DHT22;6054;50.966;7.094;2022-09-03T15:50:15;33.50;33.90
11989;DHT22;6054;50.966;7.094;2022-09-03T15:52:53;33.70;34.20
11989;DHT22;6054;50.966;7.094;2022-09-03T15:55:29;33.40;33.90
11989;DHT22;6054;50.966;7.094;2022-09-03T15:57:59;33.30;33.00
11989;DHT22;6054;50.966;7.094;2022-09-03T16:00:52;33.30;33.90
11989;DHT22;6054;50.966;7.094;2022-09-03T16:03:33;33.30;34.30
11989;DHT22;6054;50.966;7.094;2022-09-03T16:06:23;33.30;34.20
11989;DHT22;6054;50.966;7.094;2022-09-03T16:08:53;33.20;34.30
11989;DHT22;6054;50.966;7.094;2022-09-03T16:11:31;33.20;34.20
11989;DHT22;6054;50.966;7.094;2022-09-03T16:14:05;33.20;34.40
11989;DHT22;6054;50.966;7.094;2022-09-03T16:16:51;33.10;34.90
11989;DHT22;6054;50.966;7.094;2022-09-03T16:19:24;33.10;37.00
11989;DHT22;6054;50.966;7.094;2022-09-03T16:21:58;33.00;38.40
11989;DHT22;6054;50.966;7.094;2022-09-03T16:24:32;32.90;40.50
11989;DHT22;6054;50.966;7.094;2022-09-03T16:27:08;32.90;42.20
11989;DHT22;6054;50.966;7.094;2022-09-03T16:29:36;32.30;43.30
11989;DHT22;6054;50.966;7.094;2022-09-03T16:32:14;32.00;44.00